sensor_id;sensor_type;location;lat;lon;timestamp;temperature;humidity
22469;DHT22;11401;50.792;4.352;2023-03-14T00:01:16;17.40;55.30
22469;DHT22;11401;50.792;4.352;2023-03-14T00:03:44;17.30;55.20
22469;DHT22;11401;50.792;4.352;2023-03-14T00:06:11;17.30;55.30
22469;DHT22;11401;50.792;4.352;2023-03-14T00:08:39;17.30;55.30
22469;DHT22;11401;50.792;4.352;2023-03-14T00:11:12;17.20;55.80
22469;DHT22;11401;50.792;4.352;2023-03-14T00:13:39;17.30;56.80
22469;DHT22;11401;50.792;4.352;2023-03-14T00:16:12;17.20;56.60
22469;DHT22;11401;50.792;4.352;2023-03-14T00:18:39;17.30;56.60
22469;DHT22;11401;50.792;4.352;2023-03-14T00:21:08;17.40;56.60
22469;DHT22;11401;50.792;4.352;2023-03-14T00:23:37;17.50;56.50
22469;DHT22;11401;50.792;4.352;2023-03-14T00:26:10;17.50;56.00
22469;DHT22;11401;50.792;4.352;2023-03-14T00:28:38;17.30;55.10
22469;DHT22;11401;50.792;4.352;2023-03-14T00:31:07;17.30;56.10
22469;DHT22;11401;50.792;4.352;2023-03-14T00:33:34;17.30;56.10
22469;DHT22;11401;50.792;4.352;2023-03-14T00:36:13;17.50;56.40
22469;DHT22;11401;50.792;4.352;2023-03-14T00:38:42;17.30;55.60
22469;DHT22;11401;50.792;4.352;2023-03-14T00:41:13;17.10;55.70
22469;DHT22;11401;50.792;4.352;2023-03-14T00:43:41;17.20;56.20
22469;DHT22;11401;50.792;4.352;2023-03-14T00:46:08;17.10;55.70
22469;DHT22;11401;50.792;4.352;2023-03-14T00:48:35;16.90;55.70
22469;DHT22;11401;50.792;4.352;2023-03-14T00:51:04;16.70;56.60
22469;DHT22;11401;50.792;4.352;2023-03-14T00:53:35;16.70;56.80
22469;DHT22;11401;50.792;4.352;2023-03-14T00:56:04;16.90;57.70
22469;DHT22;11401;50.792;4.352;2023-03-14T00:58:32;17.10;57.50
22469;DHT22;11401;50.792;4.352;2023-03-14T01:00:59;17.10;56.70
22469;DHT22;11401;50.792;4.352;2023-03-14T01:03:26;17.00;56.20
22469;DHT22;11401;50.792;4.352;2023-03-14T01:05:53;16.90;55.90
22469;DHT22;11401;50.792;4.352;2023-03-14T01:08:20;16.80;56.00
22469;DHT22;11401;50.792;4.352;2023-03-14T01:10:48;16.80;57.00
22469;DHT22;11401;50.792;4.352;2023-03-14T01:13:15;16.80;56.50
22469;DHT22;11401;50.792;4.352;2023-03-14T01:15:42;16.80;56.70
22469;DHT22;11401;50.792;4.352;2023-03-14T01:18:10;16.80;56.50
22469;DHT22;11401;50.792;4.352;2023-03-14T01:20:37;16.80;57.40
22469;DHT22;11401;50.792;4.352;2023-03-14T01:23:04;16.70;57.30
22469;DHT22;11401;50.792;4.352;2023-03-14T01:25:31;16.70;56.60
22469;DHT22;11401;50.792;4.352;2023-03-14T01:27:58;16.80;57.60
22469;DHT22;11401;50.792;4.352;2023-03-14T01:30:28;16.80;56.80
22469;DHT22;11401;50.792;4.352;2023-03-14T01:32:55;16.70;56.80
22469;DHT22;11401;50.792;4.352;2023-03-14T01:35:22;16.80;56.90
22469;DHT22;11401;50.792;4.352;2023-03-14T01:37:49;16.80;56.80
22469;DHT22;11401;50.792;4.352;2023-03-14T01:40:20;16.70;56.80
22469;DHT22;11401;50.792;4.352;2023-03-14T01:42:56;16.70;57.20
22469;DHT22;11401;50.792;4.352;2023-03-14T01:48:26;16.50;56.50
22469;DHT22;11401;50.792;4.352;2023-03-14T01:50:55;16.70;58.00
22469;DHT22;11401;50.792;4.352;2023-03-14T01:53:22;16.70;57.30
22469;DHT22;11401;50.792;4.352;2023-03-14T01:55:50;16.70;57.90
22469;DHT22;11401;50.792;4.352;2023-03-14T01:58:19;16.80;57.80
22469;DHT22;11401;50.792;4.352;2023-03-14T02:00:47;16.70;57.80
22469;DHT22;11401;50.792;4.352;2023-03-14T02:03:16;16.70;58.20
22469;DHT22;11401;50.792;4.352;2023-03-14T02:05:45;16.70;58.10
22469;DHT22;11401;50.792;4.352;2023-03-14T02:08:19;16.80;58.30
22469;DHT22;11401;50.792;4.352;2023-03-14T02:10:50;16.80;58.00
22469;DHT22;11401;50.792;4.352;2023-03-14T02:13:29;16.50;58.70
22469;DHT22;11401;50.792;4.352;2023-03-14T02:16:24;16.50;59.30
22469;DHT22;11401;50.792;4.352;2023-03-14T02:19:13;16.40;60.10
22469;DHT22;11401;50.792;4.352;2023-03-14T02:22:09;16.40;59.60
22469;DHT22;11401;50.792;4.352;2023-03-14T02:27:23;16.40;59.60
22469;DHT22;11401;50.792;4.352;2023-03-14T02:30:07;16.40;59.90
22469;DHT22;11401;50.792;4.352;2023-03-14T02:32:37;16.30;60.10
22469;DHT22;11401;50.792;4.352;2023-03-14T02:35:11;16.30;60.60
22469;DHT22;11401;50.792;4.352;2023-03-14T02:40:10;16.20;60.90
22469;DHT22;11401;50.792;4.352;2023-03-14T02:42:39;16.20;61.00
22469;DHT22;11401;50.792;4.352;2023-03-14T02:47:48;16.20;61.30
22469;DHT22;11401;50.792;4.352;2023-03-14T02:50:25;16.20;61.30
22469;DHT22;11401;50.792;4.352;2023-03-14T02:52:54;16.20;61.50
22469;DHT22;11401;50.792;4.352;2023-03-14T02:55:22;16.10;61.80
22469;DHT22;11401;50.792;4.352;2023-03-14T02:57:53;16.10;61.90
22469;DHT22;11401;50.792;4.352;2023-03-14T03:00:20;16.00;62.10
22469;DHT22;11401;50.792;4.352;2023-03-14T03:02:47;15.90;62.30
22469;DHT22;11401;50.792;4.352;2023-03-14T03:05:14;16.00;62.50
22469;DHT22;11401;50.792;4.352;2023-03-14T03:07:42;16.00;62.40
22469;DHT22;11401;50.792;4.352;2023-03-14T03:10:09;15.90;63.10
22469;DHT22;11401;50.792;4.352;2023-03-14T03:12:37;15.90;62.70
22469;DHT22;11401;50.792;4.352;2023-03-14T03:15:05;15.90;62.40
22469;DHT22;11401;50.792;4.352;2023-03-14T03:17:35;15.90;62.40
22469;DHT22;11401;50.792;4.352;2023-03-14T03:20:02;15.90;62.70
22469;DHT22;11401;50.792;4.352;2023-03-14T03:22:31;15.90;62.60
22469;DHT22;11401;50.792;4.352;2023-03-14T03:25:01;16.00;62.70
22469;DHT22;11401;50.792;4.352;2023-03-14T03:27:34;16.00;62.80
22469;DHT22;11401;50.792;4.352;2023-03-14T03:30:04;16.00;62.50
22469;DHT22;11401;50.792;4.352;2023-03-14T03:32:33;16.20;62.70
22469;DHT22;11401;50.792;4.352;2023-03-14T03:35:01;16.20;61.50
22469;DHT22;11401;50.792;4.352;2023-03-14T03:37:34;16.20;61.90
22469;DHT22;11401;50.792;4.352;2023-03-14T03:40:03;16.10;62.10
22469;DHT22;11401;50.792;4.352;2023-03-14T03:42:35;15.90;62.40
22469;DHT22;11401;50.792;4.352;2023-03-14T03:45:03;16.00;62.70
22469;DHT22;11401;50.792;4.352;2023-03-14T03:47:34;16.00;62.60
22469;DHT22;11401;50.792;4.352;2023-03-14T03:50:02;15.80;62.90
22469;DHT22;11401;50.792;4.352;2023-03-14T03:52:29;15.80;63.20
22469;DHT22;11401;50.792;4.352;2023-03-14T03:54:56;15.90;63.30
22469;DHT22;11401;50.792;4.352;2023-03-14T03:57:23;15.90;63.30
22469;DHT22;11401;50.792;4.352;2023-03-14T03:59:50;15.90;62.90
22469;DHT22;11401;50.792;4.352;2023-03-14T04:02:17;16.00;62.60
22469;DHT22;11401;50.792;4.352;2023-03-14T04:04:44;16.10;62.60
22469;DHT22;11401;50.792;4.352;2023-03-14T04:07:11;16.10;62.00
22469;DHT22;11401;50.792;4.352;2023-03-14T04:09:41;16.10;62.40
22469;DHT22;11401;50.792;4.352;2023-03-14T04:12:19;16.00;62.40
22469;DHT22;11401;50.792;4.352;2023-03-14T04:15:05;16.10;62.60
22469;DHT22;11401;50.792;4.352;2023-03-14T04:17:34;16.30;62.30
22469;DHT22;11401;50.792;4.352;2023-03-14T04:20:01;16.30;61.80
22469;DHT22;11401;50.792;4.352;2023-03-14T04:22:34;16.20;62.00
22469;DHT22;11401;50.792;4.352;2023-03-14T04:25:01;16.20;62.40
22469;DHT22;11401;50.792;4.352;2023-03-14T04:27:34;16.30;62.10
22469;DHT22;11401;50.792;4.352;2023-03-14T04:30:03;16.20;61.80
22469;DHT22;11401;50.792;4.352;2023-03-14T04:33:05;16.20;62.10
22469;DHT22;11401;50.792;4.352;2023-03-14T04:35:38;16.20;62.20
22469;DHT22;11401;50.792;4.352;2023-03-14T04:38:09;16.30;62.30
22469;DHT22;11401;50.792;4.352;2023-03-14T04:40:40;16.10;62.40
22469;DHT22;11401;50.792;4.352;2023-03-14T04:43:10;16.00;63.00
22469;DHT22;11401;50.792;4.352;2023-03-14T04:45:47;16.00;63.40
22469;DHT22;11401;50.792;4.352;2023-03-14T04:48:14;16.10;63.30
22469;DHT22;11401;50.792;4.352;2023-03-14T04:50:42;16.00;63.10
22469;DHT22;11401;50.792;4.352;2023-03-14T04:53:09;15.90;63.40
22469;DHT22;11401;50.792;4.352;2023-03-14T04:55:37;16.00;63.50
22469;DHT22;11401;50.792;4.352;2023-03-14T04:58:04;16.10;63.20
22469;DHT22;11401;50.792;4.352;2023-03-14T05:00:31;16.10;63.00
22469;DHT22;11401;50.792;4.352;2023-03-14T05:03:18;16.20;62.90
22469;DHT22;11401;50.792;4.352;2023-03-14T05:06:05;16.30;63.20
22469;DHT22;11401;50.792;4.352;2023-03-14T05:08:51;16.30;62.50
22469;DHT22;11401;50.792;4.352;2023-03-14T05:11:54;16.30;62.20
22469;DHT22;11401;50.792;4.352;2023-03-14T05:14:23;16.40;62.30
22469;DHT22;11401;50.792;4.352;2023-03-14T05:17:15;16.50;62.10
22469;DHT22;11401;50.792;4.352;2023-03-14T05:20:06;16.60;61.50
22469;DHT22;11401;50.792;4.352;2023-03-14T05:23:11;16.60;61.50
22469;DHT22;11401;50.792;4.352;2023-03-14T05:25:58;16.60;61.60
22469;DHT22;11401;50.792;4.352;2023-03-14T05:29:01;16.60;61.80
22469;DHT22;11401;50.792;4.352;2023-03-14T05:31:43;16.60;61.30
22469;DHT22;11401;50.792;4.352;2023-03-14T05:34:43;16.60;62.00
22469;DHT22;11401;50.792;4.352;2023-03-14T05:37:33;16.60;61.80
22469;DHT22;11401;50.792;4.352;2023-03-14T05:40:21;16.70;61.40
22469;DHT22;11401;50.792;4.352;2023-03-14T05:43:17;16.70;60.70
22469;DHT22;11401;50.792;4.352;2023-03-14T05:46:00;16.70;61.40
22469;DHT22;11401;50.792;4.352;2023-03-14T05:48:27;16.90;60.90
22469;DHT22;11401;50.792;4.352;2023-03-14T05:51:10;16.90;60.20
22469;DHT22;11401;50.792;4.352;2023-03-14T05:53:49;16.80;60.60
22469;DHT22;11401;50.792;4.352;2023-03-14T05:56:32;16.80;60.80
22469;DHT22;11401;50.792;4.352;2023-03-14T05:59:18;16.90;60.70
22469;DHT22;11401;50.792;4.352;2023-03-14T06:01:59;16.80;60.80
22469;DHT22;11401;50.792;4.352;2023-03-14T06:04:30;16.80;60.90
22469;DHT22;11401;50.792;4.352;2023-03-14T06:06:59;16.80;60.90
22469;DHT22;11401;50.792;4.352;2023-03-14T06:09:26;16.70;61.10
22469;DHT22;11401;50.792;4.352;2023-03-14T06:11:56;16.70;61.30
22469;DHT22;11401;50.792;4.352;2023-03-14T06:14:23;16.80;61.30
22469;DHT22;11401;50.792;4.352;2023-03-14T06:16:52;16.70;61.30
22469;DHT22;11401;50.792;4.352;2023-03-14T06:19:22;16.60;61.80
22469;DHT22;11401;50.792;4.352;2023-03-14T06:21:50;16.50;62.10
22469;DHT22;11401;50.792;4.352;2023-03-14T06:24:17;16.40;62.70
22469;DHT22;11401;50.792;4.352;2023-03-14T06:26:48;16.40;62.90
22469;DHT22;11401;50.792;4.352;2023-03-14T06:29:16;16.20;63.40
22469;DHT22;11401;50.792;4.352;2023-03-14T06:31:44;16.20;63.90
22469;DHT22;11401;50.792;4.352;2023-03-14T06:34:14;16.20;64.10
22469;DHT22;11401;50.792;4.352;2023-03-14T06:36:41;16.20;64.10
22469;DHT22;11401;50.792;4.352;2023-03-14T06:39:09;16.10;63.90
22469;DHT22;11401;50.792;4.352;2023-03-14T06:41:40;15.80;65.40
22469;DHT22;11401;50.792;4.352;2023-03-14T06:44:08;15.60;66.50
22469;DHT22;11401;50.792;4.352;2023-03-14T06:46:36;15.50;66.70
22469;DHT22;11401;50.792;4.352;2023-03-14T06:49:04;15.60;66.90
22469;DHT22;11401;50.792;4.352;2023-03-14T06:51:33;15.80;66.40
22469;DHT22;11401;50.792;4.352;2023-03-14T06:54:03;15.80;65.60
22469;DHT22;11401;50.792;4.352;2023-03-14T06:56:30;15.80;65.30
22469;DHT22;11401;50.792;4.352;2023-03-14T06:58:58;15.80;65.00
22469;DHT22;11401;50.792;4.352;2023-03-14T07:01:29;15.80;63.70
22469;DHT22;11401;50.792;4.352;2023-03-14T07:04:04;15.80;63.90
22469;DHT22;11401;50.792;4.352;2023-03-14T07:06:33;15.60;63.60
22469;DHT22;11401;50.792;4.352;2023-03-14T07:09:01;15.40;62.50
22469;DHT22;11401;50.792;4.352;2023-03-14T07:11:29;15.40;63.00
22469;DHT22;11401;50.792;4.352;2023-03-14T07:13:57;15.40;64.00
22469;DHT22;11401;50.792;4.352;2023-03-14T07:16:24;15.40;62.20
22469;DHT22;11401;50.792;4.352;2023-03-14T07:18:55;15.40;62.50
22469;DHT22;11401;50.792;4.352;2023-03-14T07:21:22;15.50;62.80
22469;DHT22;11401;50.792;4.352;2023-03-14T07:23:49;15.50;61.90
22469;DHT22;11401;50.792;4.352;2023-03-14T07:26:17;15.50;61.30
22469;DHT22;11401;50.792;4.352;2023-03-14T07:28:49;15.40;61.90
22469;DHT22;11401;50.792;4.352;2023-03-14T07:31:18;15.20;61.40
22469;DHT22;11401;50.792;4.352;2023-03-14T07:33:46;15.10;62.80
22469;DHT22;11401;50.792;4.352;2023-03-14T07:36:13;15.20;62.30
22469;DHT22;11401;50.792;4.352;2023-03-14T07:38:43;15.10;61.90
22469;DHT22;11401;50.792;4.352;2023-03-14T07:41:33;15.20;62.40
22469;DHT22;11401;50.792;4.352;2023-03-14T07:44:18;15.20;62.70
22469;DHT22;11401;50.792;4.352;2023-03-14T07:46:45;15.20;62.50
22469;DHT22;11401;50.792;4.352;2023-03-14T07:49:12;15.20;62.30
22469;DHT22;11401;50.792;4.352;2023-03-14T07:51:40;15.20;63.00
22469;DHT22;11401;50.792;4.352;2023-03-14T07:54:07;15.40;62.40
22469;DHT22;11401;50.792;4.352;2023-03-14T07:56:34;15.50;61.00
22469;DHT22;11401;50.792;4.352;2023-03-14T07:59:01;15.40;60.60
22469;DHT22;11401;50.792;4.352;2023-03-14T08:01:28;15.20;60.60
22469;DHT22;11401;50.792;4.352;2023-03-14T08:03:56;15.10;61.50
22469;DHT22;11401;50.792;4.352;2023-03-14T08:06:23;15.10;62.00
22469;DHT22;11401;50.792;4.352;2023-03-14T08:08:50;15.20;61.30
22469;DHT22;11401;50.792;4.352;2023-03-14T08:11:17;15.20;60.90
22469;DHT22;11401;50.792;4.352;2023-03-14T08:13:44;15.30;62.60
22469;DHT22;11401;50.792;4.352;2023-03-14T08:16:16;15.50;61.30
22469;DHT22;11401;50.792;4.352;2023-03-14T08:18:44;15.50;60.70
22469;DHT22;11401;50.792;4.352;2023-03-14T08:21:12;15.40;61.30
22469;DHT22;11401;50.792;4.352;2023-03-14T08:23:39;15.40;60.80
22469;DHT22;11401;50.792;4.352;2023-03-14T08:26:07;15.30;60.80
22469;DHT22;11401;50.792;4.352;2023-03-14T08:28:34;15.40;61.10
22469;DHT22;11401;50.792;4.352;2023-03-14T08:31:01;15.50;61.10
22469;DHT22;11401;50.792;4.352;2023-03-14T08:33:29;15.20;60.00
22469;DHT22;11401;50.792;4.352;2023-03-14T08:35:57;15.10;61.30
22469;DHT22;11401;50.792;4.352;2023-03-14T08:38:25;15.20;61.80
22469;DHT22;11401;50.792;4.352;2023-03-14T08:41:00;15.50;61.80
22469;DHT22;11401;50.792;4.352;2023-03-14T08:43:27;15.70;60.60
22469;DHT22;11401;50.792;4.352;2023-03-14T08:45:58;15.50;59.40
22469;DHT22;11401;50.792;4.352;2023-03-14T08:48:25;15.30;59.20
22469;DHT22;11401;50.792;4.352;2023-03-14T08:50:52;15.30;59.90
22469;DHT22;11401;50.792;4.352;2023-03-14T08:53:20;15.20;60.90
22469;DHT22;11401;50.792;4.352;2023-03-14T08:55:54;15.10;59.50
22469;DHT22;11401;50.792;4.352;2023-03-14T08:58:21;15.00;59.90
22469;DHT22;11401;50.792;4.352;2023-03-14T09:00:50;15.10;61.10
22469;DHT22;11401;50.792;4.352;2023-03-14T09:03:17;15.20;60.70
22469;DHT22;11401;50.792;4.352;2023-03-14T09:05:44;15.20;59.80
22469;DHT22;11401;50.792;4.352;2023-03-14T09:08:11;15.00;59.50
22469;DHT22;11401;50.792;4.352;2023-03-14T09:10:38;15.00;60.30
22469;DHT22;11401;50.792;4.352;2023-03-14T09:13:06;14.90;59.60
22469;DHT22;11401;50.792;4.352;2023-03-14T09:15:33;14.70;60.20
22469;DHT22;11401;50.792;4.352;2023-03-14T09:18:00;14.70;62.10
22469;DHT22;11401;50.792;4.352;2023-03-14T09:20:27;14.70;60.70
22469;DHT22;11401;50.792;4.352;2023-03-14T09:22:54;14.80;62.10
22469;DHT22;11401;50.792;4.352;2023-03-14T09:25:21;15.00;59.50
22469;DHT22;11401;50.792;4.352;2023-03-14T09:27:48;15.10;60.30
22469;DHT22;11401;50.792;4.352;2023-03-14T09:30:16;15.20;60.30
22469;DHT22;11401;50.792;4.352;2023-03-14T09:32:44;15.30;59.00
22469;DHT22;11401;50.792;4.352;2023-03-14T09:35:11;15.20;58.90
22469;DHT22;11401;50.792;4.352;2023-03-14T09:37:38;15.10;59.10
22469;DHT22;11401;50.792;4.352;2023-03-14T09:40:06;15.00;58.30
22469;DHT22;11401;50.792;4.352;2023-03-14T09:42:37;15.10;59.40
22469;DHT22;11401;50.792;4.352;2023-03-14T09:45:30;15.20;59.60
22469;DHT22;11401;50.792;4.352;2023-03-14T09:47:59;15.40;58.80
22469;DHT22;11401;50.792;4.352;2023-03-14T09:50:33;15.40;58.30
22469;DHT22;11401;50.792;4.352;2023-03-14T09:53:07;15.50;59.80
22469;DHT22;11401;50.792;4.352;2023-03-14T09:55:36;15.50;58.50
22469;DHT22;11401;50.792;4.352;2023-03-14T09:58:17;15.40;57.90
22469;DHT22;11401;50.792;4.352;2023-03-14T10:00:45;15.40;57.90
22469;DHT22;11401;50.792;4.352;2023-03-14T10:05:43;15.20;57.80
22469;DHT22;11401;50.792;4.352;2023-03-14T10:08:11;15.00;58.80
22469;DHT22;11401;50.792;4.352;2023-03-14T10:10:38;14.90;57.20
22469;DHT22;11401;50.792;4.352;2023-03-14T10:13:24;14.70;58.50
22469;DHT22;11401;50.792;4.352;2023-03-14T10:16:04;14.90;59.20
22469;DHT22;11401;50.792;4.352;2023-03-14T10:18:33;15.00;59.80
22469;DHT22;11401;50.792;4.352;2023-03-14T10:21:20;15.00;58.90
22469;DHT22;11401;50.792;4.352;2023-03-14T10:23:47;15.30;58.90
22469;DHT22;11401;50.792;4.352;2023-03-14T10:26:24;15.40;59.10
22469;DHT22;11401;50.792;4.352;2023-03-14T10:28:54;15.40;57.40
22469;DHT22;11401;50.792;4.352;2023-03-14T10:31:28;15.40;58.40
22469;DHT22;11401;50.792;4.352;2023-03-14T10:34:16;15.30;57.30
22469;DHT22;11401;50.792;4.352;2023-03-14T10:36:43;15.20;57.70
22469;DHT22;11401;50.792;4.352;2023-03-14T10:39:45;15.30;57.30
22469;DHT22;11401;50.792;4.352;2023-03-14T10:42:25;15.30;58.20
22469;DHT22;11401;50.792;4.352;2023-03-14T10:44:59;15.40;58.60
22469;DHT22;11401;50.792;4.352;2023-03-14T10:47:28;15.60;58.00
22469;DHT22;11401;50.792;4.352;2023-03-14T10:49:56;15.70;58.30
22469;DHT22;11401;50.792;4.352;2023-03-14T10:52:28;15.70;57.30
22469;DHT22;11401;50.792;4.352;2023-03-14T10:55:11;15.60;55.90
22469;DHT22;11401;50.792;4.352;2023-03-14T10:57:40;15.40;56.90
22469;DHT22;11401;50.792;4.352;2023-03-14T11:00:19;15.40;57.70
22469;DHT22;11401;50.792;4.352;2023-03-14T11:03:03;15.60;57.80
22469;DHT22;11401;50.792;4.352;2023-03-14T11:08:18;15.10;58.90
22469;DHT22;11401;50.792;4.352;2023-03-14T11:10:51;15.20;58.70
22469;DHT22;11401;50.792;4.352;2023-03-14T11:13:30;15.20;58.50
22469;DHT22;11401;50.792;4.352;2023-03-14T11:32:23;15.30;59.10
22469;DHT22;11401;50.792;4.352;2023-03-14T11:34:53;15.40;58.70
22469;DHT22;11401;50.792;4.352;2023-03-14T11:37:32;15.40;58.40
22469;DHT22;11401;50.792;4.352;2023-03-14T11:40:14;15.50;58.00
22469;DHT22;11401;50.792;4.352;2023-03-14T11:42:43;15.30;57.30
22469;DHT22;11401;50.792;4.352;2023-03-14T11:45:25;15.20;58.70
22469;DHT22;11401;50.792;4.352;2023-03-14T11:50:49;15.00;57.70
22469;DHT22;11401;50.792;4.352;2023-03-14T11:53:26;15.00;58.90
22469;DHT22;11401;50.792;4.352;2023-03-14T11:55:56;14.80;56.40
22469;DHT22;11401;50.792;4.352;2023-03-14T11:58:27;14.60;60.00
22469;DHT22;11401;50.792;4.352;2023-03-14T12:00:57;14.50;59.30
22469;DHT22;11401;50.792;4.352;2023-03-14T12:03:39;14.50;59.30
22469;DHT22;11401;50.792;4.352;2023-03-14T12:09:02;14.60;60.20
22469;DHT22;11401;50.792;4.352;2023-03-14T12:11:54;14.60;58.40
22469;DHT22;11401;50.792;4.352;2023-03-14T12:14:35;14.80;60.50
22469;DHT22;11401;50.792;4.352;2023-03-14T12:17:22;14.80;59.10
22469;DHT22;11401;50.792;4.352;2023-03-14T12:22:35;14.70;59.00
22469;DHT22;11401;50.792;4.352;2023-03-14T12:28:18;14.50;59.60
22469;DHT22;11401;50.792;4.352;2023-03-14T12:30:45;14.70;60.10
22469;DHT22;11401;50.792;4.352;2023-03-14T12:33:20;14.80;59.20
22469;DHT22;11401;50.792;4.352;2023-03-14T12:36:01;14.70;59.30
22469;DHT22;11401;50.792;4.352;2023-03-14T12:38:54;14.70;59.80
22469;DHT22;11401;50.792;4.352;2023-03-14T12:41:38;14.70;59.20
22469;DHT22;11401;50.792;4.352;2023-03-14T12:47:00;14.70;59.00
22469;DHT22;11401;50.792;4.352;2023-03-14T12:49:31;14.60;59.20
22469;DHT22;11401;50.792;4.352;2023-03-14T12:52:02;14.50;60.00
22469;DHT22;11401;50.792;4.352;2023-03-14T12:57:28;14.50;59.80
22469;DHT22;11401;50.792;4.352;2023-03-14T13:00:22;14.50;60.00
22469;DHT22;11401;50.792;4.352;2023-03-14T13:02:49;14.40;60.20
22469;DHT22;11401;50.792;4.352;2023-03-14T13:05:22;14.50;60.70
22469;DHT22;11401;50.792;4.352;2023-03-14T13:10:28;14.40;60.10
22469;DHT22;11401;50.792;4.352;2023-03-14T13:13:31;14.60;60.40
22469;DHT22;11401;50.792;4.352;2023-03-14T13:16:01;14.60;60.30
22469;DHT22;11401;50.792;4.352;2023-03-14T13:23:40;14.50;60.50
22469;DHT22;11401;50.792;4.352;2023-03-14T13:26:14;14.40;60.70
22469;DHT22;11401;50.792;4.352;2023-03-14T13:28:42;14.40;60.90
22469;DHT22;11401;50.792;4.352;2023-03-14T13:31:22;14.40;61.20
22469;DHT22;11401;50.792;4.352;2023-03-14T13:34:01;14.40;61.20
22469;DHT22;11401;50.792;4.352;2023-03-14T13:36:28;14.40;60.90
22469;DHT22;11401;50.792;4.352;2023-03-14T13:39:00;14.40;61.20
22469;DHT22;11401;50.792;4.352;2023-03-14T13:41:28;14.50;60.20
22469;DHT22;11401;50.792;4.352;2023-03-14T13:44:05;14.40;61.00
22469;DHT22;11401;50.792;4.352;2023-03-14T13:46:34;14.40;61.00
22469;DHT22;11401;50.792;4.352;2023-03-14T13:49:04;14.30;60.80
22469;DHT22;11401;50.792;4.352;2023-03-14T13:51:32;14.20;60.60
22469;DHT22;11401;50.792;4.352;2023-03-14T13:54:02;14.30;61.50
22469;DHT22;11401;50.792;4.352;2023-03-14T13:56:33;14.20;61.30
22469;DHT22;11401;50.792;4.352;2023-03-14T13:59:00;14.10;61.20
22469;DHT22;11401;50.792;4.352;2023-03-14T14:01:34;14.20;61.60
22469;DHT22;11401;50.792;4.352;2023-03-14T14:04:14;14.20;61.50
22469;DHT22;11401;50.792;4.352;2023-03-14T14:06:50;14.20;60.70
22469;DHT22;11401;50.792;4.352;2023-03-14T14:09:35;14.20;60.60
22469;DHT22;11401;50.792;4.352;2023-03-14T14:12:06;14.20;61.20
22469;DHT22;11401;50.792;4.352;2023-03-14T14:14:49;14.20;61.30
22469;DHT22;11401;50.792;4.352;2023-03-14T14:17:28;14.20;61.70
22469;DHT22;11401;50.792;4.352;2023-03-14T14:19:56;14.20;61.10
22469;DHT22;11401;50.792;4.352;2023-03-14T14:22:25;14.20;61.20
22469;DHT22;11401;50.792;4.352;2023-03-14T14:24:52;14.20;61.20
22469;DHT22;11401;50.792;4.352;2023-03-14T14:27:27;14.30;61.50
22469;DHT22;11401;50.792;4.352;2023-03-14T14:32:47;14.40;60.50
22469;DHT22;11401;50.792;4.352;2023-03-14T14:37:52;14.50;59.10
22469;DHT22;11401;50.792;4.352;2023-03-14T14:40:26;14.30;58.00
22469;DHT22;11401;50.792;4.352;2023-03-14T14:42:53;14.40;59.70
22469;DHT22;11401;50.792;4.352;2023-03-14T14:45:27;14.30;57.20
22469;DHT22;11401;50.792;4.352;2023-03-14T14:48:06;14.30;59.20
22469;DHT22;11401;50.792;4.352;2023-03-14T14:50:37;14.30;57.30
22469;DHT22;11401;50.792;4.352;2023-03-14T14:53:26;14.20;56.60
22469;DHT22;11401;50.792;4.352;2023-03-14T14:55:55;13.70;54.30
22469;DHT22;11401;50.792;4.352;2023-03-14T14:58:28;13.80;57.10
22469;DHT22;11401;50.792;4.352;2023-03-14T15:01:05;14.00;57.10
22469;DHT22;11401;50.792;4.352;2023-03-14T15:03:34;13.90;56.00
22469;DHT22;11401;50.792;4.352;2023-03-14T15:06:04;13.90;57.60
22469;DHT22;11401;50.792;4.352;2023-03-14T15:08:31;13.90;57.00
22469;DHT22;11401;50.792;4.352;2023-03-14T15:10:58;13.90;56.60
22469;DHT22;11401;50.792;4.352;2023-03-14T15:13:25;13.70;55.80
22469;DHT22;11401;50.792;4.352;2023-03-14T15:15:52;13.70;56.60
22469;DHT22;11401;50.792;4.352;2023-03-14T15:18:24;13.60;58.10
22469;DHT22;11401;50.792;4.352;2023-03-14T15:20:55;13.70;57.70
22469;DHT22;11401;50.792;4.352;2023-03-14T15:23:23;13.80;57.40
22469;DHT22;11401;50.792;4.352;2023-03-14T15:25:50;13.80;57.00
22469;DHT22;11401;50.792;4.352;2023-03-14T15:28:24;13.80;56.90
22469;DHT22;11401;50.792;4.352;2023-03-14T15:30:58;13.80;56.00
22469;DHT22;11401;50.792;4.352;2023-03-14T15:33:26;13.80;57.00
22469;DHT22;11401;50.792;4.352;2023-03-14T15:35:53;13.80;57.80
22469;DHT22;11401;50.792;4.352;2023-03-14T15:38:21;13.90;58.00
22469;DHT22;11401;50.792;4.352;2023-03-14T15:40:51;13.80;57.60
22469;DHT22;11401;50.792;4.352;2023-03-14T15:43:19;13.90;57.40
22469;DHT22;11401;50.792;4.352;2023-03-14T15:45:46;13.90;57.30
22469;DHT22;11401;50.792;4.352;2023-03-14T15:48:19;13.90;57.00
22469;DHT22;11401;50.792;4.352;2023-03-14T15:50:46;13.90;57.40
22469;DHT22;11401;50.792;4.352;2023-03-14T15:53:14;13.90;57.40
22469;DHT22;11401;50.792;4.352;2023-03-14T15:55:41;13.80;57.30
22469;DHT22;11401;50.792;4.352;2023-03-14T15:58:17;13.90;57.70
22469;DHT22;11401;50.792;4.352;2023-03-14T16:00:48;13.80;56.90
22469;DHT22;11401;50.792;4.352;2023-03-14T16:03:16;13.90;57.90
22469;DHT22;11401;50.792;4.352;2023-03-14T16:05:43;13.90;57.90
22469;DHT22;11401;50.792;4.352;2023-03-14T16:08:10;13.80;57.40
22469;DHT22;11401;50.792;4.352;2023-03-14T16:10:37;13.90;57.60
22469;DHT22;11401;50.792;4.352;2023-03-14T16:13:05;13.80;56.80
22469;DHT22;11401;50.792;4.352;2023-03-14T16:15:32;13.80;57.10
22469;DHT22;11401;50.792;4.352;2023-03-14T16:17:59;13.80;57.30
22469;DHT22;11401;50.792;4.352;2023-03-14T16:20:32;13.80;56.90
22469;DHT22;11401;50.792;4.352;2023-03-14T16:23:13;13.80;56.50
22469;DHT22;11401;50.792;4.352;2023-03-14T16:25:44;13.90;58.00
22469;DHT22;11401;50.792;4.352;2023-03-14T16:28:11;13.80;56.20
22469;DHT22;11401;50.792;4.352;2023-03-14T16:30:38;13.80;56.60
22469;DHT22;11401;50.792;4.352;2023-03-14T16:33:05;13.80;56.10
22469;DHT22;11401;50.792;4.352;2023-03-14T16:35:39;13.80;56.80
22469;DHT22;11401;50.792;4.352;2023-03-14T16:38:06;13.80;56.90
22469;DHT22;11401;50.792;4.352;2023-03-14T16:40:34;13.80;56.20
22469;DHT22;11401;50.792;4.352;2023-03-14T16:43:01;13.90;56.30
22469;DHT22;11401;50.792;4.352;2023-03-14T16:45:41;13.80;56.10
22469;DHT22;11401;50.792;4.352;2023-03-14T16:48:09;13.80;56.50
22469;DHT22;11401;50.792;4.352;2023-03-14T16:50:36;13.80;55.70
22469;DHT22;11401;50.792;4.352;2023-03-14T16:53:05;13.70;55.40
22469;DHT22;11401;50.792;4.352;2023-03-14T16:55:41;13.80;56.30
22469;DHT22;11401;50.792;4.352;2023-03-14T16:58:09;13.80;56.30
22469;DHT22;11401;50.792;4.352;2023-03-14T17:00:38;13.70;56.10
22469;DHT22;11401;50.792;4.352;2023-03-14T17:03:05;13.80;56.70